BAW513 LPFR-EGLL
Flight info
| Callsign | BAW513 |
|---|---|
| Flight time | N/A |
| Altitude | 36000 |
| Route | ELVAR DCT BARDI N873 DELOG DCT NOVAN DCT DEGEX DCT OZNOH DCT UPALO/N0427F340 UP87 ROXOG |
| Aircraft | A320/M-SDE3FGHIRWY/LB1 |
Departure
| Time | N/A |
|---|---|
| Airport | Faro - Gago Coutinho International Airport (LPFR) |
Arrival
| Time | 2026-05-03 20:15 |
|---|---|
| Airport | London Heathrow Airport (EGLL) |
| Time | Latitude | Longitude | Altitude | Speed | Heading |
|---|---|---|---|---|---|
| 2026-05-03 20:15 | 51.47771 | -0.41700 | 368 ft | 137 kts | 271° |
| 2026-05-03 20:15 | 51.47767 | -0.43229 | 143 ft | 137 kts | 270° |
| 2026-05-03 20:15 | 51.47763 | -0.44645 | 92 ft | 109 kts | 269° |
| 2026-05-03 20:15 | 51.47760 | -0.45551 | 84 ft | 44 kts | 270° |
| 2026-05-03 20:16 | 51.47731 | -0.45835 | 87 ft | 15 kts | 239° |
| 2026-05-03 20:16 | 51.47676 | -0.45932 | 86 ft | 7 kts | 221° |
| 2026-05-03 20:16 | 51.47646 | -0.45975 | 86 ft | 5 kts | 221° |
| 2026-05-03 20:16 | 51.47629 | -0.46001 | 87 ft | 2 kts | 223° |
| 2026-05-03 20:17 | 51.47624 | -0.46009 | 86 ft | 2 kts | 223° |
| 2026-05-03 20:17 | 51.47605 | -0.46037 | 87 ft | 4 kts | 223° |
| 2026-05-03 20:17 | 51.47595 | -0.46137 | 89 ft | 14 kts | 269° |
| 2026-05-03 20:17 | 51.47594 | -0.46312 | 89 ft | 15 kts | 270° |
| 2026-05-03 20:18 | 51.47593 | -0.46502 | 90 ft | 17 kts | 270° |
| 2026-05-03 20:18 | 51.47592 | -0.46731 | 90 ft | 22 kts | 269° |
| 2026-05-03 20:18 | 51.47584 | -0.46966 | 90 ft | 21 kts | 269° |
| 2026-05-03 20:18 | 51.47583 | -0.47214 | 90 ft | 21 kts | 270° |
| 2026-05-03 20:19 | 51.47583 | -0.47443 | 89 ft | 20 kts | 270° |
| 2026-05-03 20:19 | 51.47582 | -0.47676 | 89 ft | 21 kts | 270° |
| 2026-05-03 20:19 | 51.47581 | -0.47900 | 90 ft | 20 kts | 269° |
| 2026-05-03 20:19 | 51.47581 | -0.48113 | 90 ft | 19 kts | 270° |
| 2026-05-03 20:20 | 51.47579 | -0.48337 | 91 ft | 19 kts | 268° |
| 2026-05-03 20:20 | 51.47541 | -0.48475 | 86 ft | 16 kts | 189° |
| 2026-05-03 20:20 | 51.47408 | -0.48477 | 85 ft | 18 kts | 181° |
| 2026-05-03 20:20 | 51.47300 | -0.48477 | 85 ft | 12 kts | 179° |
| 2026-05-03 20:21 | 51.47271 | -0.48518 | 88 ft | 6 kts | 269° |
| 2026-05-03 20:21 | 51.47271 | -0.48572 | 86 ft | 3 kts | 269° |
| 2026-05-03 20:21 | 51.47270 | -0.48589 | 88 ft | 0 kts | 269° |
| 2026-05-03 20:22 | 51.47270 | -0.48588 | 88 ft | 0 kts | 269° |